Time;durP1;ratioP1;P1;durP2;ratioP2;P2;SDS_P1;SDS_P2;PMS_P1;PMS_P2;Temp;Humidity;BMP_temperature;BMP_pressure;BME280_temperature;BME280_humidity;BME280_pressure;Samples;Min_cycle;Max_cycle;Signal;HPM_P1;HPM_P2
2021/12/20 00:00:25;;;;;;;1.88;0.70;;;;;;;8.88;88.37;102655.44;7380253;19;20011;-69
2021/12/20 00:02:59;;;;;;;32.78;3.92;;;;;;;8.89;88.23;102657.13;7382860;19;20018;-67
2021/12/20 00:05:26;;;;;;;4.95;0.90;;;;;;;8.91;88.64;102652.63;7389186;19;20014;-68
2021/12/20 00:07:53;;;;;;;4.38;0.65;;;;;;;8.84;87.99;102653.09;7391288;19;20657;-68
2021/12/20 00:10:20;;;;;;;6.22;0.82;;;;;;;8.82;88.12;102658.47;7394626;19;20516;-68
2021/12/20 00:12:48;;;;;;;4.55;0.90;;;;;;;8.84;88.79;102653.09;7392516;19;20070;-68
2021/12/20 00:15:16;;;;;;;5.43;0.63;;;;;;;8.90;88.54;102650.09;7391342;19;20052;-69
2021/12/20 00:17:45;;;;;;;5.97;0.73;;;;;;;8.90;88.26;102650.94;7390804;19;20007;-69
2021/12/20 00:20:19;;;;;;;3.83;0.88;;;;;;;8.94;88.48;102652.41;7391351;19;20010;-68
2021/12/20 00:22:46;;;;;;;4.65;1.05;;;;;;;8.95;87.88;102648.84;7392230;19;20014;-67
2021/12/20 00:25:13;;;;;;;1.75;0.57;;;;;;;8.93;87.17;102640.25;7390794;19;20559;-67
2021/12/20 00:27:40;;;;;;;13.77;3.92;;;;;;;8.94;87.68;102634.03;7393576;19;20010;-68
2021/12/20 00:30:09;;;;;;;3.28;1.05;;;;;;;8.94;88.88;102631.41;7390947;19;20107;-68
2021/12/20 00:32:37;;;;;;;6.88;0.60;;;;;;;8.96;87.68;102636.56;7390738;19;20476;-67
2021/12/20 00:35:09;;;;;;;4.80;0.70;;;;;;;8.95;86.69;102642.75;7390558;19;20329;-68
2021/12/20 00:42:52;;;;;;;3.92;0.50;;;;;;;8.86;87.04;102624.97;7389938;19;20015;-67
2021/12/20 00:45:21;;;;;;;2.72;0.70;;;;;;;8.89;87.54;102627.41;7388309;19;20090;-68
2021/12/20 00:47:50;;;;;;;2.35;0.47;;;;;;;8.92;86.57;102629.84;7385469;19;20392;-66
2021/12/20 00:50:19;;;;;;;1.20;0.50;;;;;;;8.90;85.78;102619.44;7390211;19;20590;-67
2021/12/20 00:52:46;;;;;;;3.80;1.80;;;;;;;8.87;85.89;102619.66;7386877;19;20011;-68
2021/12/20 00:55:16;;;;;;;1.33;0.40;;;;;;;8.87;86.34;102617.03;7390912;19;20018;-66
2021/12/20 00:57:44;;;;;;;4.35;0.50;;;;;;;8.89;85.39;102617.75;7388040;19;20353;-68
2021/12/20 01:00:14;;;;;;;1.60;0.40;;;;;;;8.88;85.63;102615.25;7389177;19;20037;-68
2021/12/20 01:02:41;;;;;;;7.32;1.70;;;;;;;8.86;86.26;102612.69;7387452;19;20476;-67
2021/12/20 01:05:08;;;;;;;2.40;0.60;;;;;;;8.91;85.72;102613.25;7388497;19;20010;-68
2021/12/20 01:07:35;;;;;;;3.50;0.47;;;;;;;8.88;85.33;102615.25;7391845;19;20027;-68
2021/12/20 01:10:07;;;;;;;3.83;0.63;;;;;;;8.83;85.15;102610.28;7387295;19;20014;-70
2021/12/20 01:12:47;;;;;;;2.63;0.77;;;;;;;8.84;85.74;102613.72;7390408;19;20563;-68
2021/12/20 01:15:19;;;;;;;2.03;0.70;;;;;;;8.87;86.64;102609.16;7390651;19;20014;-68
2021/12/20 01:17:46;;;;;;;1.77;0.33;;;;;;;8.88;85.16;102612.63;7387722;19;20032;-68
2021/12/20 01:20:13;;;;;;;2.03;0.50;;;;;;;8.86;84.71;102599.56;7387010;19;20018;-68
2021/12/20 01:22:43;;;;;;;3.80;0.30;;;;;;;8.84;85.03;102613.72;7387789;19;20041;-66
2021/12/20 01:25:11;;;;;;;2.35;0.40;;;;;;;8.80;85.08;102612.25;7388769;19;20643;-67
2021/12/20 01:27:38;;;;;;;2.55;0.50;;;;;;;8.76;85.89;102595.84;7369250;19;20041;-68
2021/12/20 01:30:08;;;;;;;4.90;0.50;;;;;;;8.77;86.07;102596.69;7380939;19;20022;-67
2021/12/20 01:32:35;;;;;;;4.55;0.63;;;;;;;8.76;86.33;102600.25;7390692;19;20015;-68
2021/12/20 01:35:04;;;;;;;8.95;1.70;;;;;;;8.74;86.15;102605.59;7390967;19;20018;-67
2021/12/20 01:37:31;;;;;;;1.52;0.40;;;;;;;8.74;86.17;102602.97;7389437;19;20018;-67
2021/12/20 01:39:59;;;;;;;1.75;0.68;;;;;;;8.74;86.35;102597.72;7387272;19;20078;-67
2021/12/20 01:42:30;;;;;;;3.08;0.20;;;;;;;8.76;86.23;102595.00;7387918;19;20010;-68
2021/12/20 01:44:57;;;;;;;3.35;0.30;;;;;;;8.80;86.01;102602.59;7389248;19;20555;-68
2021/12/20 01:47:36;;;;;;;2.13;0.32;;;;;;;8.85;85.31;102603.13;7389913;19;20006;-68
2021/12/20 01:50:07;;;;;;;2.85;0.20;;;;;;;8.87;85.39;102601.28;7385553;19;20007;-68
2021/12/20 01:55:14;;;;;;;1.50;0.20;;;;;;;8.83;85.47;102596.31;7388231;19;20025;-66
2021/12/20 01:57:41;;;;;;;8.32;1.35;;;;;;;8.81;86.29;102599.03;7379789;19;20014;-67
2021/12/20 02:00:14;;;;;;;2.03;0.30;;;;;;;8.81;86.75;102595.56;7386422;19;20031;-67
2021/12/20 02:02:43;;;;;;;0.80;0.35;;;;;;;8.83;86.79;102597.16;7386324;19;20034;-66
2021/12/20 02:05:20;;;;;;;1.10;0.40;;;;;;;8.84;86.34;102590.09;7389343;19;20527;-68
2021/12/20 02:07:51;;;;;;;2.42;0.60;;;;;;;8.85;86.99;102591.78;7383954;19;20086;-67
2021/12/20 02:10:19;;;;;;;2.40;0.40;;;;;;;8.87;86.82;102597.81;7387357;19;20014;-67
2021/12/20 02:12:46;;;;;;;1.35;0.30;;;;;;;8.89;86.86;102598.53;7385186;19;20498;-66
2021/12/20 02:15:13;;;;;;;2.38;0.60;;;;;;;8.91;86.74;102597.50;7385012;19;20026;-67
2021/12/20 02:17:41;;;;;;;1.30;0.50;;;;;;;8.90;87.67;102593.19;7386852;19;20356;-69
2021/12/20 02:20:10;;;;;;;1.33;0.50;;;;;;;8.92;87.79;102583.44;7384967;19;20662;-69
2021/12/20 02:22:38;;;;;;;3.80;1.05;;;;;;;8.96;87.12;102578.81;7384192;19;20015;-67
2021/12/20 02:25:06;;;;;;;1.67;0.40;;;;;;;8.96;86.98;102574.41;7382344;19;20496;-69
2021/12/20 02:27:33;;;;;;;4.05;0.32;;;;;;;8.95;86.77;102579.75;7384862;19;20011;-67
2021/12/20 02:30:12;;;;;;;578.83;23.10;;;;;;;9.00;88.77;102573.28;7376090;19;20010;-68
2021/12/20 02:38:02;;;;;;;3.78;0.63;;;;;;;8.99;85.98;102573.38;7386929;19;20762;-67
2021/12/20 02:40:28;;;;;;;7.20;2.40;;;;;;;8.94;86.41;102575.44;7386798;19;20023;-68
2021/12/20 02:42:55;;;;;;;3.47;0.70;;;;;;;8.86;87.31;102572.50;7385488;19;20011;-67
2021/12/20 02:45:23;;;;;;;10.68;3.30;;;;;;;8.87;87.52;102574.19;7385192;19;20433;-68
2021/12/20 02:47:50;;;;;;;6.03;2.15;;;;;;;8.88;88.26;102571.47;7386724;19;20018;-68
2021/12/20 02:50:16;;;;;;;4.63;1.38;;;;;;;8.92;88.46;102558.97;7388701;19;20527;-66
2021/12/20 02:52:43;;;;;;;2.53;0.40;;;;;;;8.90;87.79;102560.84;7384758;19;20038;-69
2021/12/20 02:55:11;;;;;;;3.40;0.82;;;;;;;8.91;87.45;102563.38;7388843;19;20476;-67
2021/12/20 02:57:39;;;;;;;2.42;0.60;;;;;;;8.94;85.75;102557.06;7386250;19;20002;-68
2021/12/20 03:00:09;;;;;;;3.33;0.30;;;;;;;8.95;85.51;102551.72;7385099;19;20014;-66
2021/12/20 03:02:38;;;;;;;3.28;0.20;;;;;;;8.90;85.57;102545.94;7384302;19;20038;-68
2021/12/20 03:05:07;;;;;;;1.75;0.30;;;;;;;8.89;85.37;102541.63;7383324;19;20007;-68
2021/12/20 03:07:43;;;;;;;3.00;0.20;;;;;;;8.91;85.42;102544.16;7384524;19;20041;-66
2021/12/20 03:10:11;;;;;;;1.80;0.45;;;;;;;8.90;85.19;102543.31;7386159;19;20031;-67
2021/12/20 03:12:37;;;;;;;2.13;0.70;;;;;;;8.91;85.35;102537.13;7382841;19;20010;-71
2021/12/20 03:15:12;;;;;;;4.68;0.60;;;;;;;8.93;85.40;102531.78;7386268;19;20018;-67
2021/12/20 03:17:39;;;;;;;3.72;0.30;;;;;;;8.95;84.55;102527.25;7387525;19;20006;-67
2021/12/20 03:20:07;;;;;;;0.90;0.20;;;;;;;8.97;84.39;102533.28;7382454;19;20030;-66
2021/12/20 03:22:34;;;;;;;2.25;0.30;;;;;;;8.97;84.21;102528.00;7382615;19;20504;-67
2021/12/20 03:25:01;;;;;;;1.15;0.20;;;;;;;8.94;83.90;102525.56;7382933;19;20042;-69
2021/12/20 03:27:28;;;;;;;4.75;0.40;;;;;;;8.91;84.00;102521.38;7384895;19;20338;-66
2021/12/20 03:29:55;;;;;;;3.15;0.22;;;;;;;8.91;85.04;102523.16;7385054;19;20036;-68
2021/12/20 03:32:22;;;;;;;1.77;0.30;;;;;;;8.92;85.19;102528.31;7361618;19;20014;-67
2021/12/20 03:34:49;;;;;;;1.98;0.30;;;;;;;8.92;85.13;102523.06;7383881;19;20417;-68
2021/12/20 03:37:15;;;;;;;3.63;0.35;;;;;;;8.94;85.33;102515.06;7383968;19;20015;-67
2021/12/20 03:39:42;;;;;;;2.08;0.45;;;;;;;8.92;85.59;102522.22;7383631;19;20130;-67
2021/12/20 03:42:09;;;;;;;14.18;1.23;;;;;;;8.93;86.29;102516.03;7384194;19;20023;-66
2021/12/20 03:44:43;;;;;;;1.13;0.30;;;;;;;8.92;86.99;102519.59;7382228;19;20532;-67
2021/12/20 03:47:12;;;;;;;5.05;0.50;;;;;;;8.94;86.97;102510.66;7385536;19;20301;-67
2021/12/20 03:49:40;;;;;;;4.20;0.40;;;;;;;8.92;87.28;102514.34;7385051;19;20031;-67
2021/12/20 03:52:08;;;;;;;2.38;0.40;;;;;;;8.86;87.45;102512.97;7385113;19;20036;-68
2021/12/20 03:54:36;;;;;;;3.97;0.45;;;;;;;8.81;88.12;102520.28;7383011;19;20011;-70
2021/12/20 03:57:04;;;;;;;7.60;0.50;;;;;;;8.76;88.40;102511.88;7381916;19;20011;-67
2021/12/20 03:59:31;;;;;;;6.20;0.52;;;;;;;8.77;88.86;102503.06;7385004;19;20010;-67
2021/12/20 04:01:58;;;;;;;4.10;0.63;;;;;;;8.78;88.73;102503.91;7380754;19;20354;-68
2021/12/20 04:04:25;;;;;;;2.47;0.60;;;;;;;8.78;88.48;102501.28;7380388;19;20487;-66
2021/12/20 04:06:52;;;;;;;3.95;0.68;;;;;;;8.76;88.44;102495.28;7384972;19;20010;-66
2021/12/20 04:09:19;;;;;;;5.93;0.85;;;;;;;8.72;88.50;102497.28;7383164;19;20028;-67
2021/12/20 04:11:46;;;;;;;5.15;0.70;;;;;;;8.71;88.52;102503.47;7384971;19;20019;-68
2021/12/20 04:14:13;;;;;;;3.15;0.60;;;;;;;8.73;88.33;102495.50;7381209;19;20456;-67
2021/12/20 04:16:40;;;;;;;2.35;0.57;;;;;;;8.68;88.64;102494.97;7359013;19;20034;-67
2021/12/20 04:19:07;;;;;;;4.97;0.80;;;;;;;8.71;88.62;102494.75;7383632;19;20011;-66
2021/12/20 04:21:34;;;;;;;2.50;0.40;;;;;;;8.72;88.45;102497.28;7382147;19;20014;-68
2021/12/20 04:24:00;;;;;;;2.83;0.40;;;;;;;8.77;88.15;102497.81;7384275;19;20044;-67
2021/12/20 04:26:27;;;;;;;4.32;0.57;;;;;;;8.79;88.02;102500.31;7383313;19;20549;-66
2021/12/20 04:28:54;;;;;;;2.28;0.63;;;;;;;8.81;87.88;102506.34;7384374;19;20047;-69
2021/12/20 04:31:21;;;;;;;4.70;0.70;;;;;;;8.82;87.96;102505.41;7383653;19;20485;-67
2021/12/20 04:33:47;;;;;;;2.85;0.50;;;;;;;8.82;88.10;102495.75;7380948;19;20048;-66
2021/12/20 04:36:14;;;;;;;13.02;2.35;;;;;;;8.79;87.48;102498.53;7381230;19;20037;-66
2021/12/20 04:38:41;;;;;;;4.10;0.50;;;;;;;8.83;88.25;102507.09;7382599;19;20014;-66
2021/12/20 04:41:08;;;;;;;3.58;0.52;;;;;;;8.84;87.88;102506.97;7385244;19;20011;-68
2021/12/20 04:43:35;;;;;;;4.70;0.57;;;;;;;8.86;87.60;102502.47;7383069;19;20039;-68
2021/12/20 04:46:02;;;;;;;3.75;0.50;;;;;;;8.83;87.94;102501.84;7390682;19;20024;-69
2021/12/20 04:48:29;;;;;;;5.38;0.52;;;;;;;8.82;87.93;102508.03;7388668;19;20043;-68
2021/12/20 04:50:56;;;;;;;4.68;0.60;;;;;;;8.80;88.03;102502.84;7369172;19;20111;-66
2021/12/20 04:53:22;;;;;;;2.95;0.60;;;;;;;8.81;88.85;102494.06;7394685;19;20018;-68
2021/12/20 04:55:49;;;;;;;5.75;1.08;;;;;;;8.84;88.40;102508.75;7392835;19;20031;-67
2021/12/20 04:58:16;;;;;;;2.15;0.60;;;;;;;8.85;88.69;102502.56;7393288;19;20018;-68
2021/12/20 05:00:44;;;;;;;6.95;0.90;;;;;;;8.88;88.00;102499.75;7392531;19;20488;-68
2021/12/20 05:03:11;;;;;;;4.53;1.88;;;;;;;8.90;88.36;102497.84;7393046;19;20011;-67
2021/12/20 05:05:39;;;;;;;2.75;0.70;;;;;;;8.86;88.40;102504.25;7389918;19;20007;-68
2021/12/20 05:08:06;;;;;;;5.30;0.90;;;;;;;8.85;88.59;102503.41;7385104;19;20010;-67
2021/12/20 05:10:34;;;;;;;3.35;1.00;;;;;;;8.83;88.83;102500.06;7390662;19;20034;-67
2021/12/20 05:13:05;;;;;;;2.70;0.63;;;;;;;8.85;88.91;102502.56;7392614;19;20010;-68
2021/12/20 05:15:32;;;;;;;2.80;0.60;;;;;;;8.84;88.50;102485.97;7371553;19;20014;-67
2021/12/20 05:18:00;;;;;;;5.50;0.80;;;;;;;8.88;88.45;102491.88;7390579;19;20014;-68
2021/12/20 05:20:27;;;;;;;3.63;1.13;;;;;;;8.89;88.03;102491.75;7388897;19;20046;-68
2021/12/20 05:22:55;;;;;;;8.45;1.25;;;;;;;8.85;87.90;102492.91;7394256;19;20496;-65
2021/12/20 05:25:24;;;;;;;6.95;1.23;;;;;;;8.83;88.03;102489.56;7388118;19;20006;-68
2021/12/20 05:27:50;;;;;;;77.70;6.63;;;;;;;8.86;88.78;102486.72;7393619;19;20018;-67
2021/12/20 05:30:18;;;;;;;4.68;1.65;;;;;;;8.85;89.64;102487.66;7393069;19;20368;-68
2021/12/20 05:32:45;;;;;;;6.07;1.67;;;;;;;8.85;89.47;102478.94;7392644;19;20010;-68
2021/12/20 05:35:14;;;;;;;8.27;1.88;;;;;;;8.83;89.42;102486.94;7389545;19;20010;-68
2021/12/20 05:37:42;;;;;;;7.05;1.52;;;;;;;8.83;89.54;102486.09;7392270;19;20014;-67
2021/12/20 05:40:10;;;;;;;6.80;1.65;;;;;;;8.87;89.62;102488.41;7390878;19;20019;-68
2021/12/20 05:42:41;;;;;;;6.53;2.40;;;;;;;8.94;89.57;102480.94;7392070;19;20024;-67
2021/12/20 05:45:12;;;;;;;6.20;2.00;;;;;;;8.95;89.43;102482.63;7389171;19;20089;-68
2021/12/20 05:47:39;;;;;;;8.52;2.83;;;;;;;8.98;89.00;102479.84;7393283;19;20044;-67
2021/12/20 05:50:08;;;;;;;7.50;2.03;;;;;;;8.98;89.25;102482.47;7387542;19;20037;-67
2021/12/20 05:52:35;;;;;;;18.05;2.85;;;;;;;8.94;89.03;102489.66;7392831;19;20022;-67
2021/12/20 05:55:04;;;;;;;8.43;2.80;;;;;;;8.92;89.14;102478.44;7388128;19;20094;-67
2021/12/20 05:57:32;;;;;;;7.28;2.03;;;;;;;8.81;88.58;102486.19;7388896;19;20034;-67
2021/12/20 06:00:00;;;;;;;6.32;1.45;;;;;;;8.81;88.07;102487.97;7394724;19;20456;-66
2021/12/20 06:02:27;;;;;;;6.57;1.98;;;;;;;8.76;88.57;102485.63;7389013;19;20042;-66
2021/12/20 06:04:54;;;;;;;8.23;1.75;;;;;;;8.75;89.15;102491.81;7387466;19;20109;-67
2021/12/20 06:07:21;;;;;;;3.47;0.93;;;;;;;8.75;86.92;102488.34;7388558;19;20015;-68
2021/12/20 06:09:49;;;;;;;5.43;1.00;;;;;;;8.77;86.69;102491.72;7388571;19;20476;-67
2021/12/20 06:12:16;;;;;;;3.88;1.20;;;;;;;8.76;86.93;102488.25;7392365;19;20496;-66
2021/12/20 06:14:43;;;;;;;8.63;1.00;;;;;;;8.72;86.77;102499.06;7389775;19;20007;-66
2021/12/20 06:17:10;;;;;;;5.53;1.73;;;;;;;8.71;87.24;102492.97;7369745;19;20044;-68
2021/12/20 06:19:36;;;;;;;4.07;1.08;;;;;;;8.69;87.13;102492.22;7391389;19;20023;-66
2021/12/20 06:22:04;;;;;;;4.60;1.00;;;;;;;8.70;87.33;102500.94;7389446;19;20011;-68
2021/12/20 06:24:31;;;;;;;3.95;1.13;;;;;;;8.72;87.48;102491.19;7390590;19;20019;-68
2021/12/20 06:26:58;;;;;;;4.63;2.00;;;;;;;8.69;87.39;102500.09;7392603;19;20477;-68
2021/12/20 06:29:25;;;;;;;4.45;1.20;;;;;;;8.75;87.87;102491.81;7388560;19;20013;-68
2021/12/20 06:31:52;;;;;;;4.93;1.00;;;;;;;8.83;86.51;102500.06;7390362;19;20332;-67
2021/12/20 06:34:19;;;;;;;3.00;0.40;;;;;;;8.87;84.78;102500.69;7390070;19;20010;-67
2021/12/20 06:36:46;;;;;;;2.22;0.60;;;;;;;8.86;84.92;102504.25;7386431;19;20292;-68
2021/12/20 06:39:13;;;;;;;2.42;0.57;;;;;;;8.85;85.42;102503.41;7391643;19;20034;-67
2021/12/20 06:41:40;;;;;;;3.78;0.55;;;;;;;8.82;85.61;102505.41;7389464;19;20348;-68
2021/12/20 06:44:07;;;;;;;2.58;0.70;;;;;;;8.82;86.49;102500.16;7389003;19;20011;-68
2021/12/20 06:46:37;;;;;;;3.47;0.80;;;;;;;8.83;86.23;102507.94;7389069;19;20018;-69
2021/12/20 06:49:08;;;;;;;3.45;0.50;;;;;;;8.88;86.42;102505.00;7389038;19;20039;-67
2021/12/20 06:51:39;;;;;;;1.50;0.50;;;;;;;8.88;86.31;102505.00;7390978;19;20018;-66
2021/12/20 06:54:08;;;;;;;4.10;0.60;;;;;;;8.89;86.52;102496.16;7386686;19;20010;-67
2021/12/20 06:56:35;;;;;;;2.72;0.60;;;;;;;8.90;86.06;102501.31;7387226;19;20018;-67
2021/12/20 06:59:02;;;;;;;33.00;2.28;;;;;;;8.94;84.67;102501.94;7392615;19;20018;-67
2021/12/20 07:01:30;;;;;;;3.33;0.77;;;;;;;8.95;84.52;102501.00;7387877;19;20002;-68
2021/12/20 07:03:58;;;;;;;1.60;0.43;;;;;;;8.96;84.06;102507.94;7391340;19;20037;-68
2021/12/20 07:06:28;;;;;;;2.03;0.50;;;;;;;8.95;83.83;102495.75;7386636;19;20653;-66
2021/12/20 07:08:54;;;;;;;2.15;0.80;;;;;;;8.96;83.90;102494.81;7386380;19;20030;-66
2021/12/20 07:11:22;;;;;;;2.20;0.50;;;;;;;8.93;84.55;102500.28;7386406;19;20011;-70
2021/12/20 07:13:50;;;;;;;1.80;0.52;;;;;;;8.93;83.84;102498.50;7388426;19;20018;-69
2021/12/20 07:16:17;;;;;;;3.75;1.30;;;;;;;8.94;84.30;102494.91;7387047;19;20015;-67
2021/12/20 07:18:43;;;;;;;2.88;0.85;;;;;;;8.92;84.79;102488.94;7389084;19;20720;-67
2021/12/20 07:21:10;;;;;;;1.25;0.30;;;;;;;8.93;84.94;102501.13;7384864;19;20010;-67
2021/12/20 07:23:37;;;;;;;2.75;0.40;;;;;;;8.92;86.43;102496.81;7389467;19;20027;-67
2021/12/20 07:26:09;;;;;;;4.00;0.45;;;;;;;8.97;85.37;102499.97;7386576;19;20682;-67
2021/12/20 07:28:36;;;;;;;4.63;0.65;;;;;;;8.96;84.81;102485.16;7389854;19;20011;-66
2021/12/20 07:31:03;;;;;;;0.93;0.50;;;;;;;8.99;87.15;102497.25;7389213;19;20444;-68
2021/12/20 07:33:30;;;;;;;2.67;0.50;;;;;;;9.04;86.74;102495.16;7390339;19;20460;-68
2021/12/20 07:35:57;;;;;;;1.40;0.50;;;;;;;8.99;84.49;102498.09;7386236;19;20464;-70
2021/12/20 07:38:24;;;;;;;1.52;0.40;;;;;;;9.00;84.38;102501.56;7382443;19;20059;-69
2021/12/20 07:40:51;;;;;;;2.25;0.40;;;;;;;9.00;84.02;102502.41;7385236;19;20010;-67
2021/12/20 07:43:18;;;;;;;4.07;0.90;;;;;;;8.95;84.28;102504.47;7385680;19;20506;-67
2021/12/20 07:45:47;;;;;;;12.63;1.10;;;;;;;8.79;84.76;102501.16;7388741;19;20161;-68
2021/12/20 07:48:17;;;;;;;1.00;0.40;;;;;;;8.85;84.03;102499.94;7386129;19;20030;-69
2021/12/20 07:50:45;;;;;;;0.73;0.30;;;;;;;8.83;83.93;102496.59;7385432;19;20353;-67
2021/12/20 07:53:13;;;;;;;3.88;0.40;;;;;;;8.83;84.28;102501.84;7389097;19;20014;-68
2021/12/20 07:55:39;;;;;;;5.72;0.40;;;;;;;8.81;84.08;102496.69;7387174;19;20030;-68
2021/12/20 07:58:07;;;;;;;2.33;0.30;;;;;;;8.85;84.45;102510.44;7385804;19;20010;-68
2021/12/20 08:00:34;;;;;;;2.05;0.60;;;;;;;8.86;84.51;102506.88;7390395;19;20050;-69
2021/12/20 08:03:01;;;;;;;3.55;0.80;;;;;;;8.82;85.39;102498.38;7385559;19;20330;-67
2021/12/20 08:05:29;;;;;;;1.58;0.45;;;;;;;8.82;85.22;102508.03;7385422;19;20348;-69
2021/12/20 08:07:56;;;;;;;4.55;1.63;;;;;;;8.84;85.88;102499.09;7387122;19;20049;-68
2021/12/20 08:10:25;;;;;;;3.00;0.52;;;;;;;8.90;86.08;102497.84;7386576;19;20048;-69
2021/12/20 08:12:53;;;;;;;2.67;0.60;;;;;;;8.88;85.86;102495.34;7389792;19;20499;-69
2021/12/20 08:15:22;;;;;;;0.98;0.40;;;;;;;8.86;85.04;102497.22;7385082;19;20015;-67
2021/12/20 08:17:50;;;;;;;2.15;0.60;;;;;;;8.82;86.15;102498.38;7385145;19;20110;-67
2021/12/20 08:20:18;;;;;;;3.13;0.88;;;;;;;8.81;86.34;102503.72;7384425;19;20018;-67
2021/12/20 08:22:46;;;;;;;3.00;1.02;;;;;;;8.78;86.83;102504.75;7384393;19;20010;-68
2021/12/20 08:25:13;;;;;;;4.57;1.17;;;;;;;8.81;87.35;102506.34;7385320;19;20346;-67
2021/12/20 08:27:40;;;;;;;1.95;0.60;;;;;;;8.86;87.66;102506.88;7394898;19;20300;-67
2021/12/20 08:30:07;;;;;;;1.98;0.50;;;;;;;8.89;86.27;102507.50;7391293;19;20018;-67
2021/12/20 08:32:36;;;;;;;1.88;0.60;;;;;;;8.88;87.01;102505.84;7391302;19;20047;-68
2021/12/20 08:35:05;;;;;;;3.33;1.08;;;;;;;8.92;86.34;102511.72;7393336;19;20021;-70
2021/12/20 08:37:32;;;;;;;3.42;0.73;;;;;;;8.92;86.58;102509.09;7390446;19;20038;-68
2021/12/20 08:39:59;;;;;;;4.43;0.90;;;;;;;8.94;87.22;102507.19;7391962;19;20042;-68
2021/12/20 08:42:26;;;;;;;7.78;1.25;;;;;;;8.96;86.98;102511.41;7391782;19;20006;-70
2021/12/20 08:44:52;;;;;;;3.20;0.70;;;;;;;8.98;85.83;102508.72;7395570;19;20026;-68
2021/12/20 08:47:20;;;;;;;4.85;1.52;;;;;;;8.97;86.16;102509.63;7397015;19;20337;-69
2021/12/20 08:49:47;;;;;;;2.28;0.90;;;;;;;8.93;86.27;102505.53;7391824;19;20018;-68
2021/12/20 08:52:15;;;;;;;3.03;0.98;;;;;;;8.88;86.40;102515.50;7392242;19;20519;-68
2021/12/20 08:54:42;;;;;;;2.17;0.50;;;;;;;8.87;85.61;102505.94;7390163;19;20328;-68
2021/12/20 08:57:10;;;;;;;3.95;1.50;;;;;;;8.83;86.48;102504.47;7390445;19;20018;-68
2021/12/20 08:59:37;;;;;;;5.30;1.88;;;;;;;8.83;86.97;102505.31;7394232;19;20025;-67
2021/12/20 09:02:07;;;;;;;4.15;1.10;;;;;;;8.83;86.37;102509.72;7392564;19;20047;-67
2021/12/20 09:04:34;;;;;;;3.00;1.20;;;;;;;8.87;86.47;102505.94;7390902;19;20408;-69
2021/12/20 09:07:03;;;;;;;7.03;2.88;;;;;;;8.91;85.54;102517.91;7395233;19;20811;-66
2021/12/20 09:09:36;;;;;;;4.30;0.90;;;;;;;8.94;85.42;102515.91;7391375;19;20015;-69
2021/12/20 09:12:05;;;;;;;5.10;0.77;;;;;;;8.92;84.71;102512.56;7391743;19;20062;-70
2021/12/20 09:14:33;;;;;;;4.97;1.23;;;;;;;8.90;84.50;102517.06;7392804;19;20501;-68
2021/12/20 09:17:05;;;;;;;2.45;0.47;;;;;;;8.91;83.20;102515.28;7391877;19;20010;-69
2021/12/20 09:19:34;;;;;;;4.47;0.77;;;;;;;8.92;83.65;102524.84;7392795;19;20034;-68
2021/12/20 09:22:06;;;;;;;1.50;0.60;;;;;;;8.90;82.35;102526.72;7392697;19;20010;-68
2021/12/20 09:24:34;;;;;;;1.55;0.60;;;;;;;8.86;82.23;102531.34;7390063;19;20539;-66
2021/12/20 09:27:03;;;;;;;3.65;0.73;;;;;;;8.88;83.52;102531.25;7385144;19;20383;-67
2021/12/20 09:29:30;;;;;;;3.85;1.75;;;;;;;8.90;83.45;102526.72;7394188;19;20006;-68
2021/12/20 09:31:58;;;;;;;5.82;2.53;;;;;;;8.91;83.91;102518.75;7390912;19;20146;-68
2021/12/20 09:34:25;;;;;;;1.83;0.30;;;;;;;8.90;81.77;102519.69;7394431;19;20039;-68
2021/12/20 09:36:54;;;;;;;2.92;0.30;;;;;;;8.87;82.17;102524.31;7392147;19;20017;-69
2021/12/20 09:39:22;;;;;;;2.25;0.40;;;;;;;8.92;83.83;102525.69;7392570;19;20019;-67
2021/12/20 09:44:23;;;;;;;0.80;0.10;;;;;;;8.91;79.01;102531.03;7390358;19;20316;-67
2021/12/20 09:46:55;;;;;;;0.90;0.10;;;;;;;8.90;79.53;102524.94;7390946;19;20019;-67
2021/12/20 09:49:22;;;;;;;1.42;0.35;;;;;;;8.92;79.58;102524.84;7389442;19;20086;-67
2021/12/20 09:51:50;;;;;;;0.85;0.10;;;;;;;8.89;77.63;102530.28;7391127;19;20034;-67
2021/12/20 09:54:17;;;;;;;2.35;0.13;;;;;;;8.88;77.60;102533.88;7389581;19;20428;-69
2021/12/20 09:56:44;;;;;;;3.03;0.30;;;;;;;8.86;78.39;102530.50;7392292;19;20523;-67
2021/12/20 09:59:17;;;;;;;0.77;0.13;;;;;;;8.83;78.51;102533.31;7394573;19;20014;-69
2021/12/20 10:01:44;;;;;;;;;;;;;;;8.82;78.76;102536.88;7389720;19;20038;-67
2021/12/20 10:04:12;;;;;;;3.88;0.10;;;;;;;8.85;78.92;102532.28;7391334;19;19911;-69
2021/12/20 10:06:40;;;;;;;3.35;0.35;;;;;;;8.85;78.73;102532.28;7387796;19;20022;-69
2021/12/20 10:09:13;;;;;;;2.70;0.30;;;;;;;8.82;79.09;102535.09;7390055;19;20042;-68
2021/12/20 10:11:41;;;;;;;3.33;0.20;;;;;;;8.87;79.25;102537.44;7389473;19;20027;-68
2021/12/20 10:14:11;;;;;;;1.92;0.30;;;;;;;8.89;79.34;102525.88;7388039;19;20007;-67
2021/12/20 10:16:40;;;;;;;3.78;0.30;;;;;;;8.95;79.66;102533.34;7391694;19;20317;-68
2021/12/20 10:19:28;;;;;;;5.22;0.35;;;;;;;8.98;79.04;102541.06;7388032;19;20018;-68
2021/12/20 10:21:58;;;;;;;3.20;0.40;;;;;;;8.97;75.94;102534.13;7388619;19;20032;-68
2021/12/20 10:24:33;;;;;;;6.13;1.15;;;;;;;8.97;76.45;102528.88;7386856;19;20072;-66
2021/12/20 10:27:04;;;;;;;4.40;0.60;;;;;;;8.95;76.75;102532.50;7388165;19;20010;-67
2021/12/20 10:29:36;;;;;;;8.25;1.67;;;;;;;8.97;76.45;102535.91;7389553;19;20010;-66
2021/12/20 10:32:04;;;;;;;4.07;0.30;;;;;;;8.88;76.63;102529.47;7386753;19;20365;-68
2021/12/20 10:34:33;;;;;;;7.30;0.30;;;;;;;8.90;77.10;102531.97;7387558;19;20014;-67
2021/12/20 10:37:03;;;;;;;2.95;0.57;;;;;;;8.86;77.75;102533.13;7391075;19;20726;-68
2021/12/20 10:39:44;;;;;;;5.95;0.65;;;;;;;8.86;79.19;102533.97;7388547;19;20022;-67
2021/12/20 10:42:14;;;;;;;5.00;0.30;;;;;;;8.86;79.36;102523.47;7386942;19;20011;-67
2021/12/20 10:44:40;;;;;;;5.88;0.38;;;;;;;8.89;77.50;102525.03;7387622;19;20011;-68
2021/12/20 10:47:23;;;;;;;2.80;0.30;;;;;;;8.88;76.88;102523.38;7391663;19;20023;-67
2021/12/20 10:49:50;;;;;;;6.57;0.40;;;;;;;8.87;77.96;102526.94;7388101;19;20042;-68
2021/12/20 10:52:27;;;;;;;4.32;0.68;;;;;;;8.90;76.54;102522.31;7390148;19;20259;-71
2021/12/20 10:54:54;;;;;;;2.97;0.20;;;;;;;8.87;75.87;102527.78;7387012;19;20010;-69
2021/12/20 10:57:26;;;;;;;5.07;0.22;;;;;;;8.82;74.28;102521.13;7387281;19;20018;-69
2021/12/20 11:00:14;;;;;;;7.13;0.30;;;;;;;8.79;75.73;102526.56;7393310;19;20042;-68
2021/12/20 11:05:56;;;;;;;4.18;0.30;;;;;;;8.86;75.72;102518.22;7390325;19;20037;-68
2021/12/20 11:11:11;;;;;;;6.00;0.40;;;;;;;8.86;76.61;102517.38;7390644;19;20014;-69
2021/12/20 11:13:39;;;;;;;7.93;0.45;;;;;;;8.90;76.24;102519.69;7386657;19;20021;-68
2021/12/20 11:16:27;;;;;;;3.97;0.30;;;;;;;8.90;75.60;102514.44;7388892;19;20414;-68
2021/12/20 11:19:21;;;;;;;5.53;0.95;;;;;;;9.00;73.97;102515.53;7388468;19;20011;-68
2021/12/20 11:21:51;;;;;;;1.35;0.40;;;;;;;9.00;73.41;102514.69;7387119;19;20519;-68
2021/12/20 11:24:36;;;;;;;4.25;0.60;;;;;;;9.04;72.08;102517.97;7386955;19;20010;-68
2021/12/20 11:27:06;;;;;;;7.63;0.60;;;;;;;9.02;72.40;102516.28;7385155;19;20021;-67
2021/12/20 11:29:35;;;;;;;5.43;0.30;;;;;;;9.00;72.15;102512.06;7386254;19;20014;-68
2021/12/20 11:32:04;;;;;;;2.20;0.30;;;;;;;8.99;72.06;102505.13;7386855;19;20475;-68
2021/12/20 11:34:32;;;;;;;5.50;0.30;;;;;;;9.02;72.58;102505.78;7387802;19;20019;-69
2021/12/20 11:36:59;;;;;;;8.32;0.40;;;;;;;9.11;74.10;102500.84;7385161;19;20101;-67
2021/12/20 11:39:26;;;;;;;6.65;0.75;;;;;;;9.12;74.25;102498.13;7386467;19;20042;-69
2021/12/20 11:41:53;;;;;;;9.95;0.80;;;;;;;9.16;73.59;102496.97;7386893;19;20045;-71
2021/12/20 11:44:24;;;;;;;11.02;0.50;;;;;;;9.19;74.30;102494.16;7386645;19;20003;-67
2021/12/20 11:47:02;;;;;;;7.10;0.88;;;;;;;9.17;71.59;102492.56;7387312;19;20010;-68
2021/12/20 11:49:31;;;;;;;7.47;0.50;;;;;;;9.18;70.92;102496.88;7389885;19;20014;-69
2021/12/20 11:52:02;;;;;;;9.40;0.90;;;;;;;9.21;71.61;102492.25;7387542;19;20014;-67
2021/12/20 11:54:36;;;;;;;5.38;0.50;;;;;;;9.24;69.90;102491.22;7389714;19;20042;-66
2021/12/20 11:57:04;;;;;;;13.93;0.73;;;;;;;9.26;68.78;102491.94;7391188;19;20019;-67
2021/12/20 11:59:50;;;;;;;14.98;1.55;;;;;;;9.27;68.69;102488.38;7389196;19;20011;-69
2021/12/20 12:02:20;;;;;;;12.88;0.75;;;;;;;9.28;68.65;102487.44;7393749;19;20021;-67